Stations météo

réclame
Mon MeteoGroup
Stekenjokk, Suède (2102): Température de l'air & dewpoint: 12.02.2019 01:00:00 - 18.02.2019 01:00:00 (CET)Stekenjokk, Suède (2102): Vitesse du vent & gusts: 12.02.2019 01:00:00 - 18.02.2019 01:00:00 (CET)Stekenjokk, Suède (2102): Direction du vent: 12.02.2019 01:00:00 - 18.02.2019 01:00:00 (CET)
Date & Time tt [°C] td [°C] ff [km/h] ff [knt] fx [km/h] fx [knt] dd
18.02.2019 01:00:00 -6,7 -7,2 43 23 - - SSE
18.02.2019 00:00:00 -6,9 -7,6 41 22 54 29 SE
17.02.2019 23:00:00 -6,9 -7,4 45 24 55 30 SSE
17.02.2019 22:00:00 -6,9 -7,6 36 19 48 26 SSE
17.02.2019 21:00:00 -6,8 -7,3 49 26 58 31 SSE
17.02.2019 20:00:00 -6,7 -7,2 35 19 65 35 SSE
17.02.2019 19:00:00 -6,7 -7,2 56 31 70 38 S
17.02.2019 18:00:00 -7,1 -7,8 41 22 48 26 SSE
17.02.2019 17:00:00 -7,4 -8,1 40 21 54 29 SE
17.02.2019 16:00:00 -6,8 -7,3 34 18 38 20 SE
17.02.2019 15:00:00 -3,3 -3,3 23 13 25 13 SE
17.02.2019 14:00:00 -3,4 -3,5 12 7 15 8 SE
17.02.2019 13:00:00 -4,8 -5,2 6 3 15 8 E
17.02.2019 12:00:00 -6,1 -6,6 12 6 25 13 SW
17.02.2019 11:00:00 -6,7 -7,3 20 11 25 14 SSW
17.02.2019 10:00:00 -7,0 -7,7 20 11 26 14 S
17.02.2019 09:00:00 -7,1 -7,8 14 8 18 10 W
17.02.2019 08:00:00 -6,9 -7,6 19 10 33 18 W
17.02.2019 07:00:00 -6,9 -7,6 6 3 45 24 N
17.02.2019 06:00:00 - - - - 45 24 -
17.02.2019 05:00:00 -6,5 -7,0 43 23 56 30 NW
17.02.2019 04:00:00 -6,3 -6,8 36 19 50 27 WNW
17.02.2019 03:00:00 -6,1 -6,6 27 15 44 24 NW
17.02.2019 02:00:00 -6,2 -6,7 27 14 45 25 W
17.02.2019 01:00:00 -6,1 -6,6 38 21 74 40 WNW
17.02.2019 00:00:00 -5,6 -6,0 62 34 76 41 WNW
16.02.2019 23:00:00 -5,6 -6,0 63 34 78 42 WNW
16.02.2019 22:00:00 -5,6 -6,0 64 35 86 47 W
16.02.2019 21:00:00 -5,9 -6,4 65 35 94 51 W
16.02.2019 20:00:00 -6,2 -6,7 79 43 98 53 W
16.02.2019 19:00:00 -6,6 -7,1 83 45 103 56 W
16.02.2019 18:00:00 -6,4 -6,9 88 48 105 57 W
16.02.2019 17:00:00 -6,2 -6,7 81 44 102 55 W
16.02.2019 16:00:00 -6,2 -6,6 85 46 108 59 W
16.02.2019 15:00:00 -5,9 -6,3 108 58 131 71 W
16.02.2019 14:00:00 -5,8 -6,2 99 53 130 70 W
16.02.2019 13:00:00 -5,3 -5,7 106 58 127 69 W
16.02.2019 12:00:00 -5,3 -5,6 93 50 115 62 W
16.02.2019 11:00:00 -5,0 -5,3 84 46 - - W
16.02.2019 10:00:00 -4,7 -5,0 - - - - -
16.02.2019 09:00:00 -4,2 -4,5 - - - - -
16.02.2019 08:00:00 -3,6 -3,7 - - - - -
16.02.2019 07:00:00 -2,9 -2,9 - - - - -
16.02.2019 06:00:00 -1,8 -1,8 - - - - -
16.02.2019 05:00:00 -0,8 -0,8 - - - - -
16.02.2019 04:00:00 -1,1 -1,1 116 63 130 70 SW
16.02.2019 03:00:00 -1,5 -1,5 89 48 98 53 SW
16.02.2019 02:00:00 -1,5 -1,5 70 38 75 41 SW
16.02.2019 01:00:00 -1,5 -1,5 55 30 61 33 SSW
16.02.2019 00:00:00 -1,4 -1,4 14 8 46 25 S
15.02.2019 23:00:00 -1,2 -1,2 41 22 47 26 S
15.02.2019 22:00:00 -1,8 -1,8 30 16 62 34 S
15.02.2019 21:00:00 -1,2 -1,2 56 30 86 47 SW
15.02.2019 20:00:00 -0,7 -0,7 74 40 87 47 WSW
15.02.2019 19:00:00 -0,1 -0,1 67 36 94 51 SW
15.02.2019 18:00:00 -0,1 -0,1 81 44 96 52 WSW
15.02.2019 17:00:00 -0,1 -0,1 81 44 100 54 WSW
15.02.2019 16:00:00 -0,1 -0,1 81 44 103 55 WSW
15.02.2019 15:00:00 -0,4 -0,4 89 48 104 56 WSW
15.02.2019 14:00:00 -1,4 -1,4 95 51 103 56 WSW
15.02.2019 13:00:00 -2,8 -2,9 66 36 78 42 WSW
15.02.2019 12:00:00 -3,2 -3,3 31 17 - - SW
15.02.2019 11:00:00 -3,3 -3,4 29 15 33 18 SW
15.02.2019 10:00:00 -3,4 -3,5 - - - - -
15.02.2019 09:00:00 -3,5 -3,6 - - - - -
15.02.2019 08:00:00 -3,5 -3,6 - - - - -
15.02.2019 07:00:00 -3,6 -3,7 - - - - -
15.02.2019 06:00:00 -3,4 -3,5 67 36 90 48 W
15.02.2019 05:00:00 -3,3 -3,4 79 43 109 59 W
15.02.2019 04:00:00 -3,3 -3,4 86 47 121 66 W
15.02.2019 03:00:00 -3,2 -3,3 98 53 126 68 W
15.02.2019 02:00:00 -3,1 -3,2 105 57 142 77 W
15.02.2019 01:00:00 -3,2 -3,3 105 57 136 73 W
15.02.2019 00:00:00 -3,2 -3,3 104 56 146 79 W
14.02.2019 23:00:00 -3,4 -3,5 112 60 164 88 W
14.02.2019 22:00:00 -2,7 -2,7 124 67 161 87 W
14.02.2019 21:00:00 -2,7 -2,7 123 67 159 86 W
14.02.2019 20:00:00 -2,2 -2,2 - - - - -
14.02.2019 19:00:00 -2,0 -2,0 - - - - -
14.02.2019 18:00:00 -1,5 -1,5 - - - - -
14.02.2019 17:00:00 -0,8 -0,8 - - - - -
14.02.2019 16:00:00 -0,6 -0,6 125 67 157 85 W
14.02.2019 15:00:00 -0,5 -0,5 113 61 145 78 WSW
14.02.2019 14:00:00 -0,6 -0,6 113 61 157 85 WSW
14.02.2019 13:00:00 -0,5 -0,5 - - - - -
14.02.2019 12:00:00 -0,3 -0,3 138 74 - - WSW
14.02.2019 11:00:00 0,0 0,0 - - - - -
14.02.2019 10:00:00 0,0 0,0 90 48 108 58 SW
14.02.2019 09:00:00 0,0 0,0 94 51 116 63 SW
14.02.2019 08:00:00 -0,1 -0,1 95 52 118 64 SW
14.02.2019 07:00:00 -1,5 -1,5 59 32 75 41 SW
14.02.2019 06:00:00 -2,4 -2,5 46 25 - - SW
14.02.2019 05:00:00 -2,6 -2,7 - - - - -
14.02.2019 04:00:00 -2,8 -2,9 - - - - -
14.02.2019 03:00:00 -2,5 -2,6 - - - - -
14.02.2019 02:00:00 -2,8 -2,9 - - - - -
14.02.2019 01:00:00 -3,1 -3,2 - - - - -
14.02.2019 00:00:00 -3,4 -3,7 18 10 42 23 WSW
13.02.2019 23:00:00 -3,9 -4,2 37 20 46 25 SW
13.02.2019 22:00:00 -4,0 -4,2 18 10 50 27 S
13.02.2019 21:00:00 -3,8 -4,1 19 10 - - WNW
13.02.2019 20:00:00 -3,7 -4,0 - - - - -
13.02.2019 19:00:00 -3,6 -3,9 - - - - -
13.02.2019 18:00:00 -3,8 -4,1 - - - - -
13.02.2019 17:00:00 -4,0 -4,3 - - - - -
13.02.2019 16:00:00 -4,0 -4,3 - - - - -
13.02.2019 15:00:00 -3,4 -3,7 - - - - -
13.02.2019 14:00:00 -2,0 -2,0 - - - - -
13.02.2019 13:00:00 - - - - - - -
13.02.2019 12:00:00 -2,0 -2,0 - - - - -
13.02.2019 11:00:00 -2,1 -2,1 - - - - -
13.02.2019 10:00:00 -2,2 -2,3 - - - - -
13.02.2019 09:00:00 -2,2 -2,3 111 60 - - WSW
13.02.2019 08:00:00 -1,8 -1,8 99 54 - - WSW
13.02.2019 07:00:00 -2,3 -2,4 - - - - -
13.02.2019 06:00:00 -4,7 -5,1 86 47 - - WSW
13.02.2019 05:00:00 -6,5 -7,2 - - - - -
13.02.2019 04:00:00 -6,3 -6,8 - - - - -
13.02.2019 03:00:00 -6,3 -6,8 - - - - -
13.02.2019 02:00:00 -6,4 -6,9 55 30 66 35 S
13.02.2019 01:00:00 -6,8 -7,5 45 25 59 32 S
13.02.2019 00:00:00 -7,2 -7,9 45 24 66 36 S
12.02.2019 23:00:00 -7,8 -8,6 - - - - -
12.02.2019 22:00:00 -8,0 -8,8 - - - - -
12.02.2019 21:00:00 -8,2 -9,0 - - - - -
12.02.2019 20:00:00 -8,8 -9,7 38 21 45 25 S
12.02.2019 19:00:00 -9,0 -9,9 27 14 30 16 SSW
12.02.2019 18:00:00 -8,9 -9,8 20 11 45 24 SW
12.02.2019 17:00:00 -8,6 -9,4 39 21 48 26 W
12.02.2019 16:00:00 -8,2 -9,0 30 16 40 21 W
12.02.2019 15:00:00 -8,2 -9,0 35 19 44 24 W
12.02.2019 14:00:00 -8,5 -9,3 32 17 46 25 WSW
12.02.2019 13:00:00 -9,0 -9,8 40 21 - - W
12.02.2019 12:00:00 -9,1 -10,0 47 25 68 37 W
12.02.2019 11:00:00 -9,4 -10,3 47 25 54 29 W
12.02.2019 10:00:00 -9,8 -10,9 38 21 43 23 W
12.02.2019 09:00:00 -9,9 -11,0 23 12 59 32 NW
12.02.2019 08:00:00 -9,9 -10,8 54 29 63 34 WNW
12.02.2019 07:00:00 -9,6 -10,5 44 24 70 38 WNW
12.02.2019 06:00:00 -9,5 -10,4 58 31 75 40 WNW
12.02.2019 05:00:00 -8,8 -9,7 53 29 76 41 WNW
12.02.2019 04:00:00 -8,7 -9,5 60 33 95 51 WNW
12.02.2019 03:00:00 -7,9 -8,7 68 37 88 48 WNW
12.02.2019 02:00:00 -8,9 -9,8 50 27 63 34 WNW
12.02.2019 01:00:00 -8,6 -9,4 40 22 64 34 WNW

tt = Température de l'air
td = dewpoint
ff = Vitesse du vent
fx = gusts
dd = Direction du vent

stations d'obs. à proximité